createdAt,value
2018-07-15T00:01:04.055Z,20.37
2018-07-15T00:03:31.044Z,20.23
2018-07-15T00:05:58.095Z,20.20
2018-07-15T00:08:25.090Z,19.91
2018-07-15T00:10:52.628Z,19.91
2018-07-15T00:13:20.413Z,19.85
2018-07-15T00:15:47.287Z,19.94
2018-07-15T00:18:14.337Z,19.88
2018-07-15T00:20:41.258Z,19.93
2018-07-15T00:23:08.304Z,19.76
2018-07-15T00:25:35.389Z,19.62
2018-07-15T00:28:02.471Z,19.44
2018-07-15T00:30:29.417Z,19.44
2018-07-15T00:32:56.295Z,19.38
2018-07-15T00:35:23.204Z,19.36
2018-07-15T00:37:50.171Z,19.61
2018-07-15T00:40:17.096Z,19.79
2018-07-15T00:42:44.889Z,19.78
2018-07-15T00:45:12.842Z,19.77
2018-07-15T00:47:39.726Z,19.72
2018-07-15T00:50:06.603Z,19.63
2018-07-15T00:52:33.504Z,19.54
2018-07-15T00:55:00.391Z,19.55
2018-07-15T00:57:27.292Z,19.53
2018-07-15T00:59:54.187Z,19.54
2018-07-15T01:02:21.070Z,19.71
2018-07-15T01:04:47.968Z,19.69
2018-07-15T01:07:14.876Z,19.76
2018-07-15T01:09:41.775Z,19.69
2018-07-15T01:12:08.651Z,19.68
2018-07-15T01:14:35.687Z,19.56
2018-07-15T01:17:02.659Z,19.59
2018-07-15T01:19:29.559Z,19.65
2018-07-15T01:21:56.456Z,19.69
2018-07-15T01:24:23.335Z,19.71
2018-07-15T01:26:50.233Z,19.55
2018-07-15T01:29:17.139Z,19.87
2018-07-15T01:31:44.019Z,20.00
2018-07-15T01:34:10.958Z,19.83
2018-07-15T01:36:37.875Z,19.86
2018-07-15T01:39:05.148Z,19.83
2018-07-15T01:41:32.051Z,19.78
2018-07-15T01:43:58.931Z,19.69
2018-07-15T01:46:25.848Z,19.58
2018-07-15T01:48:52.740Z,19.54
2018-07-15T01:51:19.686Z,19.65
2018-07-15T01:53:46.546Z,19.73
2018-07-15T01:56:13.493Z,19.78
2018-07-15T01:58:40.435Z,19.77
2018-07-15T02:01:07.331Z,19.90
2018-07-15T02:03:34.223Z,19.88
2018-07-15T02:06:01.095Z,19.99
2018-07-15T02:08:27.990Z,19.92
2018-07-15T02:10:55.002Z,19.86
2018-07-15T02:13:21.948Z,19.95
2018-07-15T02:15:48.928Z,19.91
2018-07-15T02:18:15.831Z,19.81
2018-07-15T02:20:42.729Z,19.81
2018-07-15T02:23:09.643Z,19.70
2018-07-15T02:25:36.575Z,19.65
2018-07-15T02:28:03.468Z,19.55
2018-07-15T02:30:30.357Z,19.57
2018-07-15T02:32:57.246Z,19.45
2018-07-15T02:35:24.145Z,19.73
2018-07-15T02:37:51.407Z,19.48
2018-07-15T02:40:18.284Z,19.43
2018-07-15T02:42:45.547Z,19.33
2018-07-15T02:45:12.457Z,19.41
2018-07-15T02:47:39.344Z,19.34
2018-07-15T02:50:06.231Z,19.37
2018-07-15T02:52:33.136Z,19.33
2018-07-15T02:55:00.049Z,19.24
2018-07-15T02:57:26.935Z,19.29
2018-07-15T02:59:53.824Z,19.22
2018-07-15T03:02:20.723Z,19.48
2018-07-15T03:04:47.607Z,19.17
2018-07-15T03:07:14.500Z,19.11
2018-07-15T03:09:41.389Z,19.01
2018-07-15T03:12:08.265Z,18.95
2018-07-15T03:14:35.161Z,18.89
2018-07-15T03:17:02.071Z,18.69
2018-07-15T03:19:28.931Z,18.74
2018-07-15T03:21:56.512Z,18.72
2018-07-15T03:24:23.412Z,18.63
2018-07-15T03:26:50.320Z,18.65
2018-07-15T03:29:17.218Z,18.64
2018-07-15T03:31:44.145Z,18.84
2018-07-15T03:34:11.122Z,18.76
2018-07-15T03:36:37.936Z,18.85
2018-07-15T03:39:06.076Z,18.83
2018-07-15T03:41:34.997Z,19.22
2018-07-15T03:44:01.908Z,19.01
2018-07-15T03:46:28.815Z,19.12
2018-07-15T03:48:55.707Z,19.10
2018-07-15T03:51:22.590Z,19.23
2018-07-15T03:53:49.508Z,19.24
2018-07-15T03:56:16.396Z,19.36
2018-07-15T03:58:43.280Z,19.44
2018-07-15T04:01:10.187Z,19.52
2018-07-15T04:03:37.086Z,19.67
2018-07-15T04:06:04.015Z,19.92
2018-07-15T04:08:30.951Z,20.16
2018-07-15T04:10:57.796Z,20.09
2018-07-15T04:13:24.695Z,20.33
2018-07-15T04:15:51.577Z,20.35
2018-07-15T04:18:18.461Z,20.77
2018-07-15T04:20:45.351Z,21.07
2018-07-15T04:23:12.229Z,21.11
2018-07-15T04:25:39.136Z,21.51
2018-07-15T04:28:06.031Z,21.60
2018-07-15T04:30:32.911Z,21.71
2018-07-15T04:32:59.806Z,22.01
2018-07-15T04:35:26.703Z,21.90
2018-07-15T04:37:53.695Z,22.38
2018-07-15T04:40:20.853Z,22.48
2018-07-15T04:42:48.147Z,22.77
2018-07-15T04:45:15.051Z,22.71
2018-07-15T04:47:41.962Z,22.51
2018-07-15T04:50:08.876Z,22.68
2018-07-15T04:52:35.774Z,22.86
2018-07-15T04:55:02.665Z,22.79
2018-07-15T04:57:29.607Z,22.26
2018-07-15T04:59:56.848Z,21.63
2018-07-15T05:02:23.757Z,21.44
2018-07-15T05:04:50.661Z,21.29
2018-07-15T05:07:17.545Z,21.25
2018-07-15T05:09:44.441Z,21.38
2018-07-15T05:12:11.330Z,21.43
2018-07-15T05:14:38.273Z,21.57
2018-07-15T05:17:05.171Z,21.80
2018-07-15T05:19:32.092Z,21.90
2018-07-15T05:21:59.003Z,22.15
2018-07-15T05:24:25.906Z,22.61
2018-07-15T05:26:52.803Z,23.10
2018-07-15T05:29:19.772Z,23.07
2018-07-15T05:31:46.670Z,22.84
2018-07-15T05:34:13.608Z,22.57
2018-07-15T05:36:40.531Z,22.80
2018-07-15T05:39:07.429Z,23.21
2018-07-15T05:41:34.344Z,23.17
2018-07-15T05:44:01.251Z,23.07
2018-07-15T05:46:29.071Z,22.68
2018-07-15T05:48:55.967Z,23.02
2018-07-15T05:51:22.864Z,22.51
2018-07-15T05:53:49.779Z,22.78
2018-07-15T05:56:16.725Z,23.09
2018-07-15T05:58:43.631Z,23.57
2018-07-15T06:01:10.519Z,22.87
2018-07-15T06:03:37.484Z,22.93
2018-07-15T06:06:04.326Z,22.86
2018-07-15T06:08:31.247Z,23.03
2018-07-15T06:10:58.151Z,22.65
2018-07-15T06:13:25.052Z,23.34
2018-07-15T06:15:51.937Z,23.47
2018-07-15T06:18:18.819Z,23.57
2018-07-15T06:20:45.716Z,23.42
2018-07-15T06:23:12.615Z,23.60
2018-07-15T06:25:39.489Z,22.93
2018-07-15T06:28:06.388Z,23.05
2018-07-15T06:30:33.344Z,22.91
2018-07-15T06:33:00.240Z,22.69
2018-07-15T06:35:27.214Z,22.65
2018-07-15T06:37:54.110Z,22.56
2018-07-15T06:40:21.183Z,22.55
2018-07-15T06:42:48.148Z,22.78
2018-07-15T06:45:15.051Z,23.01
2018-07-15T06:47:41.944Z,23.46
2018-07-15T06:50:08.830Z,24.16
2018-07-15T06:52:35.741Z,23.95
2018-07-15T06:55:02.815Z,23.84
2018-07-15T06:57:29.706Z,24.10
2018-07-15T06:59:56.616Z,23.35
2018-07-15T07:02:25.158Z,24.05
2018-07-15T07:04:52.051Z,24.72
2018-07-15T07:07:19.006Z,24.47
2018-07-15T07:09:45.831Z,24.33
2018-07-15T07:12:12.753Z,24.66
2018-07-15T07:14:39.639Z,24.50
2018-07-15T07:17:06.553Z,24.63
2018-07-15T07:19:33.481Z,24.66
2018-07-15T07:22:00.422Z,24.30
2018-07-15T07:24:27.332Z,24.16
2018-07-15T07:26:54.218Z,24.45
2018-07-15T07:29:27.423Z,24.91
2018-07-15T07:31:54.324Z,25.36
2018-07-15T07:34:21.211Z,24.97
2018-07-15T07:36:49.143Z,25.18
2018-07-15T07:39:16.127Z,25.10
2018-07-15T07:41:43.695Z,24.98
2018-07-15T07:44:10.633Z,24.90
2018-07-15T07:46:37.533Z,25.71
2018-07-15T07:49:04.498Z,25.72
2018-07-15T07:51:31.426Z,26.08
2018-07-15T07:53:58.357Z,26.46
2018-07-15T07:56:25.254Z,26.34
2018-07-15T07:58:52.150Z,26.50
2018-07-15T08:01:19.045Z,26.39
2018-07-15T08:03:46.046Z,26.43
2018-07-15T08:06:12.998Z,26.36
2018-07-15T08:08:39.898Z,26.54
2018-07-15T08:11:07.304Z,26.56
2018-07-15T08:13:34.219Z,26.59
2018-07-15T08:16:01.184Z,27.09
2018-07-15T08:18:28.077Z,27.10
2018-07-15T08:20:54.975Z,27.40
2018-07-15T08:23:21.877Z,27.04
2018-07-15T08:25:48.768Z,27.14
2018-07-15T08:28:15.807Z,27.78
2018-07-15T08:30:54.211Z,27.65
2018-07-15T08:33:21.459Z,27.36
2018-07-15T08:35:48.365Z,27.07
2018-07-15T08:38:15.321Z,27.48
2018-07-15T08:40:42.453Z,27.51
2018-07-15T08:43:09.344Z,27.46
2018-07-15T08:45:36.248Z,27.62
2018-07-15T08:48:03.152Z,27.84
2018-07-15T08:50:30.073Z,27.55
2018-07-15T08:52:56.985Z,27.47
2018-07-15T08:55:23.897Z,28.00
2018-07-15T08:57:51.816Z,28.00
2018-07-15T09:00:19.723Z,27.82
2018-07-15T09:02:46.628Z,27.24
2018-07-15T09:05:13.560Z,27.72
2018-07-15T09:07:40.579Z,27.61
2018-07-15T09:10:07.495Z,27.78
2018-07-15T09:12:34.410Z,28.00
2018-07-15T09:15:01.297Z,28.16
2018-07-15T09:17:28.235Z,28.43
2018-07-15T09:19:55.132Z,28.13
2018-07-15T09:22:22.544Z,28.29
2018-07-15T09:24:49.471Z,28.31
2018-07-15T09:27:16.400Z,27.77
2018-07-15T09:29:43.335Z,27.53
2018-07-15T09:32:10.314Z,27.58
2018-07-15T09:34:37.234Z,28.14
2018-07-15T09:37:04.183Z,28.47
2018-07-15T09:39:31.218Z,28.34
2018-07-15T09:41:58.123Z,28.39
2018-07-15T09:44:25.017Z,28.10
2018-07-15T09:46:51.925Z,28.67
2018-07-15T09:49:18.849Z,28.96
2018-07-15T09:51:45.764Z,29.11
2018-07-15T09:54:12.672Z,28.95
2018-07-15T09:56:40.605Z,28.86
2018-07-15T09:59:07.535Z,29.19
2018-07-15T10:01:34.429Z,29.17
2018-07-15T10:04:01.325Z,29.25
2018-07-15T10:06:28.263Z,29.21
2018-07-15T10:08:55.180Z,29.48
2018-07-15T10:11:22.212Z,29.43
2018-07-15T10:13:49.131Z,29.47
2018-07-15T10:16:16.056Z,29.68
2018-07-15T10:18:42.969Z,29.84
2018-07-15T10:21:09.908Z,29.53
2018-07-15T10:23:36.839Z,30.00
2018-07-15T10:26:03.764Z,29.35
2018-07-15T10:28:30.698Z,29.61
2018-07-15T10:30:57.628Z,29.51
2018-07-15T10:33:24.545Z,29.75
2018-07-15T10:35:51.455Z,29.99
2018-07-15T10:38:18.390Z,29.79
2018-07-15T10:40:45.347Z,29.96
2018-07-15T10:43:12.280Z,30.35
2018-07-15T10:45:39.187Z,30.76
2018-07-15T10:48:06.206Z,30.55
2018-07-15T10:50:33.131Z,30.09
2018-07-15T10:53:00.181Z,30.21
2018-07-15T10:55:26.999Z,30.50
2018-07-15T10:57:53.900Z,30.47
2018-07-15T11:00:20.867Z,30.48
2018-07-15T11:02:47.804Z,30.57
2018-07-15T11:05:14.675Z,31.08
2018-07-15T11:07:41.562Z,30.73
2018-07-15T11:10:08.471Z,31.07
2018-07-15T11:12:35.429Z,30.49
2018-07-15T11:15:02.368Z,30.78
2018-07-15T11:17:29.284Z,31.04
2018-07-15T11:19:56.192Z,31.15
2018-07-15T11:22:23.157Z,31.15
2018-07-15T11:24:49.989Z,31.44
2018-07-15T11:27:16.892Z,31.63
2018-07-15T11:29:43.800Z,31.57
2018-07-15T11:32:10.707Z,31.53
2018-07-15T11:34:37.632Z,31.81
2018-07-15T11:37:05.308Z,31.93
2018-07-15T11:39:32.189Z,32.18
2018-07-15T11:41:59.079Z,31.27
2018-07-15T11:44:26.024Z,31.53
2018-07-15T11:46:53.131Z,31.69
2018-07-15T11:49:20.055Z,33.04
2018-07-15T11:51:47.009Z,32.84
2018-07-15T11:54:13.947Z,32.36
2018-07-15T11:56:40.870Z,33.17
2018-07-15T11:59:07.787Z,32.48
2018-07-15T12:04:01.602Z,32.26
2018-07-15T12:06:28.560Z,32.55
2018-07-15T12:08:55.447Z,32.33
2018-07-15T12:11:22.527Z,32.98
2018-07-15T12:13:49.630Z,33.76
2018-07-15T12:16:16.532Z,34.81
2018-07-15T12:18:43.447Z,34.23
2018-07-15T12:21:10.399Z,34.18
2018-07-15T12:23:37.328Z,33.68
2018-07-15T12:26:04.261Z,33.63
2018-07-15T12:28:31.162Z,33.12
2018-07-15T12:30:58.072Z,33.51
2018-07-15T12:33:24.963Z,33.20
2018-07-15T12:35:51.857Z,33.47
2018-07-15T12:38:18.760Z,33.58
2018-07-15T12:40:45.651Z,33.19
2018-07-15T12:43:12.584Z,32.97
2018-07-15T12:45:39.481Z,32.84
2018-07-15T12:48:06.400Z,32.43
2018-07-15T12:50:33.357Z,32.55
2018-07-15T12:53:00.274Z,32.08
2018-07-15T12:55:27.205Z,31.92
2018-07-15T12:57:54.087Z,30.56
2018-07-15T13:00:20.989Z,30.93
2018-07-15T13:02:47.891Z,31.07
2018-07-15T13:05:14.792Z,30.82
2018-07-15T13:07:41.707Z,30.91
2018-07-15T13:10:08.608Z,30.83
2018-07-15T13:12:35.557Z,30.34
2018-07-15T13:15:02.435Z,29.76
2018-07-15T13:17:29.351Z,29.25
2018-07-15T13:19:56.241Z,29.08
2018-07-15T13:22:23.140Z,28.87
2018-07-15T13:24:50.036Z,28.52
2018-07-15T13:27:16.970Z,28.42
2018-07-15T13:29:43.921Z,28.24
2018-07-15T13:32:10.772Z,28.27
2018-07-15T13:34:37.714Z,28.06
2018-07-15T13:37:04.649Z,27.61
2018-07-15T13:39:31.542Z,27.45
2018-07-15T13:41:58.517Z,27.10
2018-07-15T13:44:25.413Z,26.99
2018-07-15T13:46:52.334Z,26.81
2018-07-15T13:49:19.237Z,26.58
2018-07-15T13:51:46.168Z,26.56
2018-07-15T13:54:13.066Z,26.43
2018-07-15T13:56:40.024Z,26.38
2018-07-15T13:59:06.919Z,26.15
2018-07-15T14:01:33.821Z,25.93
2018-07-15T14:04:00.730Z,25.92
2018-07-15T14:06:27.621Z,26.14
2018-07-15T14:08:54.513Z,26.12
2018-07-15T14:11:21.485Z,26.12
2018-07-15T14:13:48.461Z,26.04
2018-07-15T14:16:18.403Z,26.00
2018-07-15T14:18:45.316Z,25.75
2018-07-15T14:21:12.212Z,25.79
2018-07-15T14:23:39.092Z,25.45
2018-07-15T14:26:05.987Z,25.45
2018-07-15T14:28:32.885Z,25.43
2018-07-15T14:30:59.767Z,25.32
2018-07-15T14:33:26.672Z,25.28
2018-07-15T14:35:53.595Z,24.41
2018-07-15T14:38:20.513Z,23.95
2018-07-15T14:40:47.432Z,23.31
2018-07-15T14:43:14.336Z,22.97
2018-07-15T14:45:46.671Z,22.95
2018-07-15T14:48:13.552Z,22.92
2018-07-15T14:50:41.253Z,23.15
2018-07-15T14:53:08.141Z,23.63
2018-07-15T14:55:35.627Z,23.78
2018-07-15T14:58:02.522Z,23.95
2018-07-15T15:00:29.420Z,24.15
2018-07-15T15:02:56.319Z,24.60
2018-07-15T15:05:23.224Z,25.43
2018-07-15T15:07:50.101Z,25.56
2018-07-15T15:10:16.987Z,25.34
2018-07-15T15:12:43.971Z,25.40
2018-07-15T15:15:10.879Z,25.23
2018-07-15T15:17:37.781Z,25.16
2018-07-15T15:20:04.704Z,25.28
2018-07-15T15:22:31.625Z,25.24
2018-07-15T15:24:58.527Z,25.26
2018-07-15T15:27:25.425Z,25.48
2018-07-15T15:29:52.344Z,25.66
2018-07-15T15:32:19.236Z,25.71
2018-07-15T15:34:46.117Z,25.94
2018-07-15T15:37:13.019Z,26.04
2018-07-15T15:39:39.986Z,26.11
2018-07-15T15:42:06.960Z,26.18
2018-07-15T15:44:33.875Z,26.12
2018-07-15T15:47:00.773Z,26.30
2018-07-15T15:49:27.678Z,26.24
2018-07-15T15:51:54.607Z,25.44
2018-07-15T15:54:21.522Z,25.13
2018-07-15T15:56:48.435Z,25.11
2018-07-15T15:59:15.339Z,25.49
2018-07-15T16:01:42.299Z,25.69
2018-07-15T16:04:09.199Z,25.90
2018-07-15T16:06:36.161Z,25.76
2018-07-15T16:09:03.929Z,26.02
2018-07-15T16:11:30.851Z,26.18
2018-07-15T16:13:57.763Z,26.19
2018-07-15T16:16:24.718Z,25.85
2018-07-15T16:18:51.612Z,26.02
2018-07-15T16:21:18.503Z,26.58
2018-07-15T16:23:45.531Z,27.10
2018-07-15T16:26:12.639Z,27.58
2018-07-15T16:28:39.583Z,28.09
2018-07-15T16:31:06.568Z,27.97
2018-07-15T16:33:33.535Z,28.04
2018-07-15T16:36:00.524Z,27.15
2018-07-15T16:38:34.735Z,27.31
2018-07-15T16:41:01.715Z,27.13
2018-07-15T16:43:29.115Z,27.17
2018-07-15T16:45:56.044Z,26.72
2018-07-15T16:48:23.195Z,26.23
2018-07-15T16:50:50.118Z,26.39
2018-07-15T16:53:17.202Z,26.28
2018-07-15T16:55:44.204Z,26.13
2018-07-15T16:58:11.214Z,26.24
2018-07-15T17:00:38.717Z,26.29
2018-07-15T17:03:05.768Z,26.06
2018-07-15T17:05:32.832Z,26.28
2018-07-15T17:08:00.564Z,25.98
2018-07-15T17:10:27.520Z,26.02
2018-07-15T17:12:54.446Z,25.87
2018-07-15T17:15:21.395Z,25.84
2018-07-15T17:17:48.303Z,25.70
2018-07-15T17:20:15.291Z,26.40
2018-07-15T17:22:46.016Z,25.93
2018-07-15T17:25:13.007Z,26.44
2018-07-15T17:27:39.924Z,25.94
2018-07-15T17:30:06.820Z,25.68
2018-07-15T17:32:33.711Z,25.46
2018-07-15T17:35:01.118Z,25.35
2018-07-15T17:37:28.051Z,25.16
2018-07-15T17:39:55.009Z,25.13
2018-07-15T17:42:21.941Z,25.25
2018-07-15T17:44:48.979Z,25.40
2018-07-15T17:47:15.879Z,25.01
2018-07-15T17:49:42.800Z,24.81
2018-07-15T17:52:09.683Z,24.64
2018-07-15T17:54:36.577Z,24.22
2018-07-15T17:57:03.464Z,24.19
2018-07-15T17:59:30.357Z,24.29
2018-07-15T18:01:57.287Z,24.26
2018-07-15T18:04:24.234Z,24.50
2018-07-15T18:06:51.097Z,24.02
2018-07-15T18:09:18.003Z,23.83
2018-07-15T18:11:44.889Z,23.80
2018-07-15T18:14:11.790Z,23.81
2018-07-15T18:16:38.709Z,24.40
2018-07-15T18:19:05.668Z,23.92
2018-07-15T18:21:32.572Z,24.36
2018-07-15T18:23:59.471Z,23.69
2018-07-15T18:26:26.654Z,23.38
2018-07-15T18:28:53.547Z,23.47
2018-07-15T18:31:20.472Z,23.57
2018-07-15T18:33:47.350Z,23.31
2018-07-15T18:36:14.258Z,23.20
2018-07-15T18:38:41.208Z,23.22
2018-07-15T18:41:08.104Z,23.16
2018-07-15T18:43:35.022Z,22.85
2018-07-15T18:46:02.325Z,22.92
2018-07-15T18:48:29.257Z,22.81
2018-07-15T18:50:56.197Z,22.75
2018-07-15T18:53:23.826Z,22.87
2018-07-15T18:55:50.726Z,22.91
2018-07-15T18:58:17.748Z,23.47
2018-07-15T19:00:44.705Z,23.18
2018-07-15T19:03:11.910Z,23.11
2018-07-15T19:05:39.275Z,23.75
2018-07-15T19:08:06.169Z,23.12
2018-07-15T19:10:33.077Z,23.67
2018-07-15T19:13:00.246Z,22.87
2018-07-15T19:15:27.311Z,22.88
2018-07-15T19:17:54.244Z,22.84
2018-07-15T19:20:23.107Z,22.92
2018-07-15T19:22:50.039Z,23.04
2018-07-15T19:25:17.079Z,22.96
2018-07-15T19:27:43.999Z,22.86
2018-07-15T19:30:10.907Z,22.89
2018-07-15T19:32:37.786Z,22.77
2018-07-15T19:35:05.404Z,22.77
2018-07-15T19:37:32.352Z,22.67
2018-07-15T19:40:01.516Z,22.39
2018-07-15T19:42:28.697Z,21.78
2018-07-15T19:44:55.598Z,21.45
2018-07-15T19:47:22.563Z,21.30
2018-07-15T19:49:49.508Z,21.27
2018-07-15T19:52:16.483Z,21.21
2018-07-15T19:54:45.155Z,21.21
2018-07-15T19:57:14.082Z,21.20
2018-07-15T19:59:40.976Z,21.11
2018-07-15T20:02:08.593Z,20.96
2018-07-15T20:04:35.495Z,20.98
2018-07-15T20:07:02.423Z,20.98
2018-07-15T20:09:29.357Z,21.32
2018-07-15T20:11:56.280Z,20.98
2018-07-15T20:14:23.160Z,20.70
2018-07-15T20:16:50.748Z,20.43
2018-07-15T20:19:17.629Z,20.24
2018-07-15T20:21:44.617Z,19.97
2018-07-15T20:24:11.480Z,20.02
2018-07-15T20:26:38.387Z,19.93
2018-07-15T20:29:05.280Z,20.10
2018-07-15T20:31:32.158Z,19.88
2018-07-15T20:33:59.041Z,19.77
2018-07-15T20:36:27.642Z,19.61
2018-07-15T20:38:54.644Z,19.55
2018-07-15T20:41:21.588Z,19.66
2018-07-15T20:43:48.483Z,19.88
2018-07-15T20:46:15.413Z,20.00
2018-07-15T20:48:42.340Z,19.90
2018-07-15T20:51:09.398Z,19.84
2018-07-15T20:53:36.428Z,19.81
2018-07-15T20:56:03.324Z,19.76
2018-07-15T20:58:30.240Z,19.82
2018-07-15T21:00:57.183Z,19.81
2018-07-15T21:03:24.093Z,19.90
2018-07-15T21:05:51.005Z,19.99
2018-07-15T21:08:18.000Z,20.08
2018-07-15T21:10:44.888Z,20.15
2018-07-15T21:13:11.768Z,20.28
2018-07-15T21:15:38.708Z,20.25
2018-07-15T21:18:05.675Z,20.15
2018-07-15T21:20:32.568Z,20.22
2018-07-15T21:22:59.439Z,20.31
2018-07-15T21:25:26.350Z,20.39
2018-07-15T21:27:53.247Z,20.47
2018-07-15T21:30:20.117Z,20.53
2018-07-15T21:32:47.020Z,20.62
2018-07-15T21:35:14.661Z,20.83
2018-07-15T21:37:41.540Z,20.92
2018-07-15T21:40:08.486Z,20.93
2018-07-15T21:42:35.478Z,20.98
2018-07-15T21:45:02.359Z,20.94
2018-07-15T21:47:29.270Z,20.99
2018-07-15T21:49:56.164Z,21.02
2018-07-15T21:52:23.219Z,21.09
2018-07-15T21:54:50.127Z,21.02
2018-07-15T21:57:17.040Z,21.02
2018-07-15T21:59:43.967Z,20.84
2018-07-15T22:02:12.753Z,20.75
2018-07-15T22:04:39.643Z,20.78
2018-07-15T22:07:18.145Z,20.77
2018-07-15T22:09:57.779Z,20.79
2018-07-15T22:12:24.700Z,20.45
2018-07-15T22:14:51.698Z,20.27
2018-07-15T22:17:18.695Z,20.72
2018-07-15T22:19:45.856Z,20.19
2018-07-15T22:22:12.791Z,20.13
2018-07-15T22:24:39.739Z,20.10
2018-07-15T22:27:06.647Z,20.00
2018-07-15T22:29:33.588Z,20.08
2018-07-15T22:32:00.501Z,20.16
2018-07-15T22:34:27.599Z,20.22
2018-07-15T22:36:54.537Z,20.25
2018-07-15T22:39:21.431Z,20.27
2018-07-15T22:41:48.326Z,20.08
2018-07-15T22:44:15.353Z,20.15
2018-07-15T22:46:42.239Z,19.99
2018-07-15T22:49:09.131Z,19.91
2018-07-15T22:51:36.038Z,19.84
2018-07-15T22:54:02.948Z,19.97
2018-07-15T22:56:29.825Z,20.06
2018-07-15T22:58:56.742Z,20.09
2018-07-15T23:01:23.676Z,20.07
2018-07-15T23:03:50.565Z,20.00
2018-07-15T23:06:19.433Z,19.92
2018-07-15T23:08:46.311Z,20.03
2018-07-15T23:11:13.472Z,20.03
2018-07-15T23:13:40.380Z,20.01
2018-07-15T23:16:07.396Z,20.03
2018-07-15T23:18:34.279Z,19.79
2018-07-15T23:21:01.161Z,19.69
2018-07-15T23:23:28.040Z,19.67
2018-07-15T23:25:54.937Z,19.62
2018-07-15T23:28:21.830Z,19.47
2018-07-15T23:30:48.722Z,19.44
2018-07-15T23:33:15.615Z,19.86
2018-07-15T23:35:42.506Z,19.48
2018-07-15T23:38:09.402Z,19.29
2018-07-15T23:40:36.312Z,19.16
2018-07-15T23:43:04.506Z,19.07
2018-07-15T23:45:32.283Z,19.07
2018-07-15T23:47:59.156Z,19.19
2018-07-15T23:50:26.052Z,19.26
2018-07-15T23:52:53.084Z,19.44
2018-07-15T23:55:20.171Z,19.64
2018-07-15T23:57:47.121Z,19.73
